sensor_id;sensor_type;location;lat;lon;timestamp;P1;durP1;ratioP1;P2;durP2;ratioP2
29294;SDS011;16305;48.566;8.846;2022-07-25T00:02:17;11.53;;;9.67;;
29294;SDS011;16305;48.566;8.846;2022-07-25T00:04:43;12.93;;;9.97;;
29294;SDS011;16305;48.566;8.846;2022-07-25T00:07:09;10.93;;;9.57;;
29294;SDS011;16305;48.566;8.846;2022-07-25T00:09:34;11.43;;;10.20;;
29294;SDS011;16305;48.566;8.846;2022-07-25T00:12:00;11.07;;;9.87;;
29294;SDS011;16305;48.566;8.846;2022-07-25T00:14:25;11.57;;;9.53;;
29294;SDS011;16305;48.566;8.846;2022-07-25T00:16:51;11.33;;;10.13;;
29294;SDS011;16305;48.566;8.846;2022-07-25T00:19:17;11.73;;;9.97;;
29294;SDS011;16305;48.566;8.846;2022-07-25T00:21:43;18.20;;;10.40;;
29294;SDS011;16305;48.566;8.846;2022-07-25T00:24:09;12.43;;;10.90;;
29294;SDS011;16305;48.566;8.846;2022-07-25T00:26:34;11.07;;;9.93;;
29294;SDS011;16305;48.566;8.846;2022-07-25T00:29:00;10.87;;;9.77;;
29294;SDS011;16305;48.566;8.846;2022-07-25T00:31:25;10.63;;;9.53;;
29294;SDS011;16305;48.566;8.846;2022-07-25T00:33:51;11.87;;;9.73;;
29294;SDS011;16305;48.566;8.846;2022-07-25T00:36:16;11.47;;;9.57;;
29294;SDS011;16305;48.566;8.846;2022-07-25T00:38:42;10.90;;;9.23;;
29294;SDS011;16305;48.566;8.846;2022-07-25T00:41:08;12.23;;;10.43;;
29294;SDS011;16305;48.566;8.846;2022-07-25T00:43:33;12.53;;;10.03;;
29294;SDS011;16305;48.566;8.846;2022-07-25T00:45:59;11.00;;;9.90;;
29294;SDS011;16305;48.566;8.846;2022-07-25T00:48:28;12.27;;;10.93;;
29294;SDS011;16305;48.566;8.846;2022-07-25T00:50:54;13.47;;;10.50;;
29294;SDS011;16305;48.566;8.846;2022-07-25T00:53:20;12.27;;;9.90;;
29294;SDS011;16305;48.566;8.846;2022-07-25T00:55:46;11.63;;;10.43;;
29294;SDS011;16305;48.566;8.846;2022-07-25T00:58:12;11.73;;;10.07;;
29294;SDS011;16305;48.566;8.846;2022-07-25T01:00:37;12.40;;;10.33;;
29294;SDS011;16305;48.566;8.846;2022-07-25T01:03:03;10.77;;;9.67;;
29294;SDS011;16305;48.566;8.846;2022-07-25T01:05:28;11.60;;;10.40;;
29294;SDS011;16305;48.566;8.846;2022-07-25T01:07:54;11.60;;;10.40;;
29294;SDS011;16305;48.566;8.846;2022-07-25T01:10:21;11.13;;;10.03;;
29294;SDS011;16305;48.566;8.846;2022-07-25T01:12:55;12.33;;;10.30;;
29294;SDS011;16305;48.566;8.846;2022-07-25T01:15:22;11.50;;;10.37;;
29294;SDS011;16305;48.566;8.846;2022-07-25T01:17:48;13.63;;;10.83;;
29294;SDS011;16305;48.566;8.846;2022-07-25T01:20:15;12.60;;;11.30;;
29294;SDS011;16305;48.566;8.846;2022-07-25T01:22:44;13.03;;;10.73;;
29294;SDS011;16305;48.566;8.846;2022-07-25T01:25:10;15.70;;;11.67;;
29294;SDS011;16305;48.566;8.846;2022-07-25T01:27:37;14.23;;;11.67;;
29294;SDS011;16305;48.566;8.846;2022-07-25T01:30:04;13.83;;;11.47;;
29294;SDS011;16305;48.566;8.846;2022-07-25T01:32:31;14.77;;;12.73;;
29294;SDS011;16305;48.566;8.846;2022-07-25T01:34:56;12.27;;;10.93;;
29294;SDS011;16305;48.566;8.846;2022-07-25T01:37:22;13.77;;;10.67;;
29294;SDS011;16305;48.566;8.846;2022-07-25T01:39:47;12.57;;;10.77;;
29294;SDS011;16305;48.566;8.846;2022-07-25T01:42:13;13.70;;;11.03;;
29294;SDS011;16305;48.566;8.846;2022-07-25T01:44:38;14.57;;;11.67;;
29294;SDS011;16305;48.566;8.846;2022-07-25T01:47:04;14.07;;;11.97;;
29294;SDS011;16305;48.566;8.846;2022-07-25T01:49:29;15.53;;;11.97;;
29294;SDS011;16305;48.566;8.846;2022-07-25T01:51:55;15.03;;;11.37;;
29294;SDS011;16305;48.566;8.846;2022-07-25T01:54:21;14.13;;;12.63;;
29294;SDS011;16305;48.566;8.846;2022-07-25T01:56:46;14.67;;;12.53;;
29294;SDS011;16305;48.566;8.846;2022-07-25T01:59:12;14.10;;;11.73;;
29294;SDS011;16305;48.566;8.846;2022-07-25T02:01:37;13.50;;;11.70;;
29294;SDS011;16305;48.566;8.846;2022-07-25T02:04:03;13.00;;;11.50;;
29294;SDS011;16305;48.566;8.846;2022-07-25T02:06:28;12.63;;;11.33;;
29294;SDS011;16305;48.566;8.846;2022-07-25T02:08:54;14.33;;;11.83;;
29294;SDS011;16305;48.566;8.846;2022-07-25T02:11:20;18.10;;;12.23;;
29294;SDS011;16305;48.566;8.846;2022-07-25T02:13:45;12.60;;;11.07;;
29294;SDS011;16305;48.566;8.846;2022-07-25T02:16:11;13.50;;;11.83;;
29294;SDS011;16305;48.566;8.846;2022-07-25T02:18:37;13.27;;;11.87;;
29294;SDS011;16305;48.566;8.846;2022-07-25T02:21:03;14.50;;;12.17;;
29294;SDS011;16305;48.566;8.846;2022-07-25T02:23:33;12.83;;;11.07;;
29294;SDS011;16305;48.566;8.846;2022-07-25T02:25:59;12.97;;;11.47;;
29294;SDS011;16305;48.566;8.846;2022-07-25T02:28:24;11.83;;;10.63;;
29294;SDS011;16305;48.566;8.846;2022-07-25T02:30:50;12.97;;;10.77;;
29294;SDS011;16305;48.566;8.846;2022-07-25T02:33:16;13.03;;;11.50;;
29294;SDS011;16305;48.566;8.846;2022-07-25T02:35:41;15.07;;;11.37;;
29294;SDS011;16305;48.566;8.846;2022-07-25T02:38:07;12.83;;;11.00;;
29294;SDS011;16305;48.566;8.846;2022-07-25T02:40:32;14.47;;;11.27;;
29294;SDS011;16305;48.566;8.846;2022-07-25T02:42:58;16.90;;;11.87;;
29294;SDS011;16305;48.566;8.846;2022-07-25T02:45:23;13.50;;;11.23;;
29294;SDS011;16305;48.566;8.846;2022-07-25T02:47:49;15.97;;;12.07;;
29294;SDS011;16305;48.566;8.846;2022-07-25T02:50:15;14.10;;;11.50;;
29294;SDS011;16305;48.566;8.846;2022-07-25T02:52:41;16.23;;;12.30;;
29294;SDS011;16305;48.566;8.846;2022-07-25T02:55:07;14.17;;;11.97;;
29294;SDS011;16305;48.566;8.846;2022-07-25T02:57:33;12.53;;;11.27;;
29294;SDS011;16305;48.566;8.846;2022-07-25T02:59:59;15.17;;;11.07;;
29294;SDS011;16305;48.566;8.846;2022-07-25T03:02:25;12.17;;;10.93;;
29294;SDS011;16305;48.566;8.846;2022-07-25T03:04:50;15.07;;;12.57;;
29294;SDS011;16305;48.566;8.846;2022-07-25T03:07:16;14.07;;;11.77;;
29294;SDS011;16305;48.566;8.846;2022-07-25T03:09:41;14.53;;;11.47;;
29294;SDS011;16305;48.566;8.846;2022-07-25T03:12:07;13.70;;;11.13;;
29294;SDS011;16305;48.566;8.846;2022-07-25T03:14:33;12.63;;;11.20;;
29294;SDS011;16305;48.566;8.846;2022-07-25T03:16:58;11.70;;;10.27;;
29294;SDS011;16305;48.566;8.846;2022-07-25T03:19:24;14.07;;;11.50;;
29294;SDS011;16305;48.566;8.846;2022-07-25T03:21:49;14.57;;;11.60;;
29294;SDS011;16305;48.566;8.846;2022-07-25T03:24:15;12.93;;;11.53;;
29294;SDS011;16305;48.566;8.846;2022-07-25T03:26:42;14.33;;;11.23;;
29294;SDS011;16305;48.566;8.846;2022-07-25T03:29:07;13.93;;;10.90;;
29294;SDS011;16305;48.566;8.846;2022-07-25T03:31:33;13.07;;;11.53;;
29294;SDS011;16305;48.566;8.846;2022-07-25T03:33:58;14.23;;;11.90;;
29294;SDS011;16305;48.566;8.846;2022-07-25T03:36:24;13.03;;;11.50;;
29294;SDS011;16305;48.566;8.846;2022-07-25T03:38:49;12.77;;;11.03;;
29294;SDS011;16305;48.566;8.846;2022-07-25T03:41:15;14.77;;;12.10;;
29294;SDS011;16305;48.566;8.846;2022-07-25T03:43:40;23.97;;;14.53;;
29294;SDS011;16305;48.566;8.846;2022-07-25T03:46:06;18.23;;;11.83;;
29294;SDS011;16305;48.566;8.846;2022-07-25T03:48:31;17.87;;;13.53;;
29294;SDS011;16305;48.566;8.846;2022-07-25T03:50:57;17.30;;;12.13;;
29294;SDS011;16305;48.566;8.846;2022-07-25T03:53:23;18.13;;;12.77;;
29294;SDS011;16305;48.566;8.846;2022-07-25T03:55:48;13.80;;;11.47;;
29294;SDS011;16305;48.566;8.846;2022-07-25T03:58:14;15.40;;;10.60;;
29294;SDS011;16305;48.566;8.846;2022-07-25T04:00:39;12.37;;;10.43;;
29294;SDS011;16305;48.566;8.846;2022-07-25T04:03:05;14.00;;;11.47;;
29294;SDS011;16305;48.566;8.846;2022-07-25T04:05:30;14.53;;;11.03;;
29294;SDS011;16305;48.566;8.846;2022-07-25T04:07:56;13.03;;;10.83;;
29294;SDS011;16305;48.566;8.846;2022-07-25T04:10:22;13.53;;;11.00;;
29294;SDS011;16305;48.566;8.846;2022-07-25T04:12:47;15.80;;;11.73;;
29294;SDS011;16305;48.566;8.846;2022-07-25T04:15:13;16.07;;;11.67;;
29294;SDS011;16305;48.566;8.846;2022-07-25T04:17:38;14.40;;;11.13;;
29294;SDS011;16305;48.566;8.846;2022-07-25T04:20:04;14.13;;;11.53;;
29294;SDS011;16305;48.566;8.846;2022-07-25T04:22:31;12.60;;;11.30;;
29294;SDS011;16305;48.566;8.846;2022-07-25T04:24:56;19.07;;;11.23;;
29294;SDS011;16305;48.566;8.846;2022-07-25T04:27:22;11.27;;;10.07;;
29294;SDS011;16305;48.566;8.846;2022-07-25T04:29:47;13.20;;;10.47;;
29294;SDS011;16305;48.566;8.846;2022-07-25T04:32:13;12.50;;;10.60;;
29294;SDS011;16305;48.566;8.846;2022-07-25T04:34:40;13.20;;;9.33;;
29294;SDS011;16305;48.566;8.846;2022-07-25T04:37:07;11.37;;;9.63;;
29294;SDS011;16305;48.566;8.846;2022-07-25T04:39:33;10.67;;;9.57;;
29294;SDS011;16305;48.566;8.846;2022-07-25T04:41:58;13.77;;;10.03;;
29294;SDS011;16305;48.566;8.846;2022-07-25T04:44:24;11.43;;;10.23;;
29294;SDS011;16305;48.566;8.846;2022-07-25T04:46:49;12.80;;;9.90;;
29294;SDS011;16305;48.566;8.846;2022-07-25T04:49:15;12.50;;;10.07;;
29294;SDS011;16305;48.566;8.846;2022-07-25T04:51:40;17.50;;;11.83;;
29294;SDS011;16305;48.566;8.846;2022-07-25T04:54:06;18.07;;;13.07;;
29294;SDS011;16305;48.566;8.846;2022-07-25T04:56:33;13.60;;;11.63;;
29294;SDS011;16305;48.566;8.846;2022-07-25T04:58:58;18.00;;;12.20;;
29294;SDS011;16305;48.566;8.846;2022-07-25T05:01:24;15.17;;;12.53;;
29294;SDS011;16305;48.566;8.846;2022-07-25T05:03:49;15.50;;;12.47;;
29294;SDS011;16305;48.566;8.846;2022-07-25T05:06:15;14.67;;;12.07;;
29294;SDS011;16305;48.566;8.846;2022-07-25T05:08:40;16.93;;;13.27;;
29294;SDS011;16305;48.566;8.846;2022-07-25T05:11:06;15.93;;;12.70;;
29294;SDS011;16305;48.566;8.846;2022-07-25T05:13:31;16.60;;;12.40;;
29294;SDS011;16305;48.566;8.846;2022-07-25T05:15:58;15.73;;;12.73;;
29294;SDS011;16305;48.566;8.846;2022-07-25T05:18:23;15.87;;;13.17;;
29294;SDS011;16305;48.566;8.846;2022-07-25T05:20:49;15.53;;;12.60;;
29294;SDS011;16305;48.566;8.846;2022-07-25T05:23:14;14.03;;;11.93;;
29294;SDS011;16305;48.566;8.846;2022-07-25T05:25:40;13.33;;;11.93;;
29294;SDS011;16305;48.566;8.846;2022-07-25T05:28:05;15.33;;;12.40;;
29294;SDS011;16305;48.566;8.846;2022-07-25T05:30:31;13.37;;;11.67;;
29294;SDS011;16305;48.566;8.846;2022-07-25T05:32:56;13.07;;;11.70;;
29294;SDS011;16305;48.566;8.846;2022-07-25T05:35:22;12.90;;;11.50;;
29294;SDS011;16305;48.566;8.846;2022-07-25T05:37:47;15.87;;;12.17;;
29294;SDS011;16305;48.566;8.846;2022-07-25T05:40:13;16.10;;;11.37;;
29294;SDS011;16305;48.566;8.846;2022-07-25T05:42:39;15.73;;;10.80;;
29294;SDS011;16305;48.566;8.846;2022-07-25T05:45:04;14.53;;;10.73;;
29294;SDS011;16305;48.566;8.846;2022-07-25T05:47:30;14.03;;;11.07;;
29294;SDS011;16305;48.566;8.846;2022-07-25T05:49:56;12.47;;;11.17;;
29294;SDS011;16305;48.566;8.846;2022-07-25T05:52:21;11.37;;;10.27;;
29294;SDS011;16305;48.566;8.846;2022-07-25T05:54:47;12.63;;;10.40;;
29294;SDS011;16305;48.566;8.846;2022-07-25T05:57:13;12.87;;;10.90;;
29294;SDS011;16305;48.566;8.846;2022-07-25T05:59:38;13.83;;;11.53;;
29294;SDS011;16305;48.566;8.846;2022-07-25T06:02:04;12.87;;;11.57;;
29294;SDS011;16305;48.566;8.846;2022-07-25T06:04:29;12.43;;;11.13;;
29294;SDS011;16305;48.566;8.846;2022-07-25T06:06:55;13.27;;;11.50;;
29294;SDS011;16305;48.566;8.846;2022-07-25T06:09:20;12.90;;;11.50;;
29294;SDS011;16305;48.566;8.846;2022-07-25T06:11:47;11.53;;;10.33;;
29294;SDS011;16305;48.566;8.846;2022-07-25T06:14:13;12.23;;;10.30;;
29294;SDS011;16305;48.566;8.846;2022-07-25T06:16:39;11.30;;;10.03;;
29294;SDS011;16305;48.566;8.846;2022-07-25T06:19:05;13.67;;;10.07;;
29294;SDS011;16305;48.566;8.846;2022-07-25T06:21:31;12.43;;;10.60;;
29294;SDS011;16305;48.566;8.846;2022-07-25T06:23:57;12.83;;;9.93;;
29294;SDS011;16305;48.566;8.846;2022-07-25T06:26:22;11.47;;;10.13;;
29294;SDS011;16305;48.566;8.846;2022-07-25T06:28:48;10.33;;;9.27;;
29294;SDS011;16305;48.566;8.846;2022-07-25T06:31:14;11.37;;;9.87;;
29294;SDS011;16305;48.566;8.846;2022-07-25T06:33:40;10.23;;;9.23;;
29294;SDS011;16305;48.566;8.846;2022-07-25T06:36:06;11.17;;;9.20;;
29294;SDS011;16305;48.566;8.846;2022-07-25T06:38:31;10.90;;;9.80;;
29294;SDS011;16305;48.566;8.846;2022-07-25T06:40:57;11.40;;;9.53;;
29294;SDS011;16305;48.566;8.846;2022-07-25T06:43:22;12.53;;;9.93;;
29294;SDS011;16305;48.566;8.846;2022-07-25T06:45:48;11.13;;;10.03;;
29294;SDS011;16305;48.566;8.846;2022-07-25T06:48:14;11.10;;;9.90;;
29294;SDS011;16305;48.566;8.846;2022-07-25T06:50:40;12.00;;;10.17;;
29294;SDS011;16305;48.566;8.846;2022-07-25T06:53:06;10.90;;;9.80;;
29294;SDS011;16305;48.566;8.846;2022-07-25T06:55:32;10.90;;;9.80;;
29294;SDS011;16305;48.566;8.846;2022-07-25T06:57:57;11.37;;;10.27;;
29294;SDS011;16305;48.566;8.846;2022-07-25T07:00:23;12.93;;;9.77;;
29294;SDS011;16305;48.566;8.846;2022-07-25T07:05:15;13.03;;;10.00;;
29294;SDS011;16305;48.566;8.846;2022-07-25T07:07:40;11.20;;;9.77;;
29294;SDS011;16305;48.566;8.846;2022-07-25T07:10:06;12.03;;;10.70;;
29294;SDS011;16305;48.566;8.846;2022-07-25T07:12:32;11.57;;;10.17;;
29294;SDS011;16305;48.566;8.846;2022-07-25T07:14:58;13.00;;;10.33;;
29294;SDS011;16305;48.566;8.846;2022-07-25T07:17:23;11.40;;;10.20;;
29294;SDS011;16305;48.566;8.846;2022-07-25T07:19:49;14.93;;;10.60;;
29294;SDS011;16305;48.566;8.846;2022-07-25T07:22:14;12.97;;;10.43;;
29294;SDS011;16305;48.566;8.846;2022-07-25T07:24:40;12.63;;;10.53;;
29294;SDS011;16305;48.566;8.846;2022-07-25T07:27:05;12.20;;;10.43;;
29294;SDS011;16305;48.566;8.846;2022-07-25T07:29:31;12.30;;;10.23;;
29294;SDS011;16305;48.566;8.846;2022-07-25T07:31:56;11.33;;;10.13;;
29294;SDS011;16305;48.566;8.846;2022-07-25T07:34:22;10.60;;;9.43;;
29294;SDS011;16305;48.566;8.846;2022-07-25T07:36:47;11.20;;;10.03;;
29294;SDS011;16305;48.566;8.846;2022-07-25T07:39:13;13.50;;;11.07;;
29294;SDS011;16305;48.566;8.846;2022-07-25T07:41:40;12.57;;;10.37;;
29294;SDS011;16305;48.566;8.846;2022-07-25T07:44:06;11.93;;;9.80;;
29294;SDS011;16305;48.566;8.846;2022-07-25T07:46:31;10.87;;;9.63;;
29294;SDS011;16305;48.566;8.846;2022-07-25T07:48:56;11.10;;;10.10;;
29294;SDS011;16305;48.566;8.846;2022-07-25T07:51:22;10.83;;;9.47;;
29294;SDS011;16305;48.566;8.846;2022-07-25T07:53:48;10.70;;;9.60;;
29294;SDS011;16305;48.566;8.846;2022-07-25T07:56:32;10.83;;;9.33;;
29294;SDS011;16305;48.566;8.846;2022-07-25T07:58:57;10.53;;;9.53;;
29294;SDS011;16305;48.566;8.846;2022-07-25T08:01:23;10.97;;;8.93;;
29294;SDS011;16305;48.566;8.846;2022-07-25T08:03:49;13.40;;;10.57;;
29294;SDS011;16305;48.566;8.846;2022-07-25T08:06:14;11.63;;;9.20;;
29294;SDS011;16305;48.566;8.846;2022-07-25T08:08:40;10.70;;;9.60;;
29294;SDS011;16305;48.566;8.846;2022-07-25T08:11:05;9.10;;;8.20;;
29294;SDS011;16305;48.566;8.846;2022-07-25T08:13:31;10.40;;;8.47;;
29294;SDS011;16305;48.566;8.846;2022-07-25T08:16:02;9.57;;;8.77;;
29294;SDS011;16305;48.566;8.846;2022-07-25T08:18:28;10.93;;;8.70;;
29294;SDS011;16305;48.566;8.846;2022-07-25T08:20:56;9.43;;;8.50;;
29294;SDS011;16305;48.566;8.846;2022-07-25T08:23:22;9.33;;;8.43;;
29294;SDS011;16305;48.566;8.846;2022-07-25T08:25:49;10.53;;;8.30;;
29294;SDS011;16305;48.566;8.846;2022-07-25T08:28:15;9.07;;;8.27;;
29294;SDS011;16305;48.566;8.846;2022-07-25T08:30:41;9.60;;;8.70;;
29294;SDS011;16305;48.566;8.846;2022-07-25T08:33:08;12.37;;;9.27;;
29294;SDS011;16305;48.566;8.846;2022-07-25T08:35:37;9.60;;;8.70;;
29294;SDS011;16305;48.566;8.846;2022-07-25T08:38:04;9.50;;;8.53;;
29294;SDS011;16305;48.566;8.846;2022-07-25T08:40:31;9.90;;;8.90;;
29294;SDS011;16305;48.566;8.846;2022-07-25T08:42:58;9.37;;;8.37;;
29294;SDS011;16305;48.566;8.846;2022-07-25T08:45:24;8.97;;;8.07;;
29294;SDS011;16305;48.566;8.846;2022-07-25T08:47:52;9.63;;;8.73;;
29294;SDS011;16305;48.566;8.846;2022-07-25T08:50:19;9.10;;;8.30;;
29294;SDS011;16305;48.566;8.846;2022-07-25T08:52:49;9.67;;;8.67;;
29294;SDS011;16305;48.566;8.846;2022-07-25T08:55:16;9.37;;;8.47;;
29294;SDS011;16305;48.566;8.846;2022-07-25T08:57:44;9.00;;;8.20;;
29294;SDS011;16305;48.566;8.846;2022-07-25T09:00:12;10.20;;;8.67;;
29294;SDS011;16305;48.566;8.846;2022-07-25T09:02:40;10.57;;;8.80;;
29294;SDS011;16305;48.566;8.846;2022-07-25T09:05:06;10.43;;;8.07;;
29294;SDS011;16305;48.566;8.846;2022-07-25T09:07:33;9.07;;;8.25;;
29294;SDS011;16305;48.566;8.846;2022-07-25T09:13:02;9.80;;;8.80;;
29294;SDS011;16305;48.566;8.846;2022-07-25T09:15:36;10.50;;;7.87;;
29294;SDS011;16305;48.566;8.846;2022-07-25T09:18:04;8.73;;;7.78;;
29294;SDS011;16305;48.566;8.846;2022-07-25T09:23:27;6.50;;;5.90;;
29294;SDS011;16305;48.566;8.846;2022-07-25T09:26:01;4.28;;;3.88;;
29294;SDS011;16305;48.566;8.846;2022-07-25T09:28:30;5.35;;;4.25;;
29294;SDS011;16305;48.566;8.846;2022-07-25T09:30:56;4.28;;;3.90;;
29294;SDS011;16305;48.566;8.846;2022-07-25T09:33:24;4.00;;;3.60;;
29294;SDS011;16305;48.566;8.846;2022-07-25T09:35:52;3.58;;;3.08;;
29294;SDS011;16305;48.566;8.846;2022-07-25T09:38:18;5.03;;;3.80;;
29294;SDS011;16305;48.566;8.846;2022-07-25T09:40:57;4.03;;;3.72;;
29294;SDS011;16305;48.566;8.846;2022-07-25T09:43:37;4.75;;;3.88;;
29294;SDS011;16305;48.566;8.846;2022-07-25T09:46:07;4.85;;;3.72;;
29294;SDS011;16305;48.566;8.846;2022-07-25T09:48:34;4.18;;;3.78;;
29294;SDS011;16305;48.566;8.846;2022-07-25T09:51:01;4.20;;;3.80;;
29294;SDS011;16305;48.566;8.846;2022-07-25T09:53:27;5.18;;;3.45;;
29294;SDS011;16305;48.566;8.846;2022-07-25T09:55:53;7.60;;;3.95;;
29294;SDS011;16305;48.566;8.846;2022-07-25T09:58:21;4.75;;;3.88;;
29294;SDS011;16305;48.566;8.846;2022-07-25T10:00:47;4.25;;;3.85;;
29294;SDS011;16305;48.566;8.846;2022-07-25T10:06:07;3.95;;;3.65;;
29294;SDS011;16305;48.566;8.846;2022-07-25T10:08:51;4.20;;;3.80;;
29294;SDS011;16305;48.566;8.846;2022-07-25T10:11:21;4.35;;;3.90;;
29294;SDS011;16305;48.566;8.846;2022-07-25T10:13:51;4.18;;;3.78;;
29294;SDS011;16305;48.566;8.846;2022-07-25T10:16:19;4.45;;;4.05;;
29294;SDS011;16305;48.566;8.846;2022-07-25T10:18:48;4.47;;;3.55;;
29294;SDS011;16305;48.566;8.846;2022-07-25T10:21:21;4.38;;;3.97;;
29294;SDS011;16305;48.566;8.846;2022-07-25T10:23:58;4.72;;;3.92;;
29294;SDS011;16305;48.566;8.846;2022-07-25T10:26:23;5.68;;;4.00;;
29294;SDS011;16305;48.566;8.846;2022-07-25T10:28:49;4.55;;;3.90;;
29294;SDS011;16305;48.566;8.846;2022-07-25T10:33:47;4.40;;;3.72;;
29294;SDS011;16305;48.566;8.846;2022-07-25T10:36:18;3.90;;;3.60;;
29294;SDS011;16305;48.566;8.846;2022-07-25T10:38:45;4.30;;;3.97;;
29294;SDS011;16305;48.566;8.846;2022-07-25T10:41:11;3.80;;;3.50;;
29294;SDS011;16305;48.566;8.846;2022-07-25T10:43:39;4.38;;;3.90;;
29294;SDS011;16305;48.566;8.846;2022-07-25T10:46:10;3.90;;;3.60;;
29294;SDS011;16305;48.566;8.846;2022-07-25T10:48:38;4.22;;;3.90;;
29294;SDS011;16305;48.566;8.846;2022-07-25T10:51:07;4.22;;;3.83;;
29294;SDS011;16305;48.566;8.846;2022-07-25T10:53:46;5.10;;;4.40;;
29294;SDS011;16305;48.566;8.846;2022-07-25T10:56:14;5.53;;;3.70;;
29294;SDS011;16305;48.566;8.846;2022-07-25T11:01:26;3.80;;;3.50;;
29294;SDS011;16305;48.566;8.846;2022-07-25T11:03:54;4.22;;;3.83;;
29294;SDS011;16305;48.566;8.846;2022-07-25T11:06:29;4.35;;;3.95;;
29294;SDS011;16305;48.566;8.846;2022-07-25T11:08:58;3.83;;;3.53;;
29294;SDS011;16305;48.566;8.846;2022-07-25T11:11:37;4.70;;;4.30;;
29294;SDS011;16305;48.566;8.846;2022-07-25T11:14:12;4.85;;;3.90;;
29294;SDS011;16305;48.566;8.846;2022-07-25T11:16:43;4.88;;;3.95;;
29294;SDS011;16305;48.566;8.846;2022-07-25T11:24:34;4.85;;;4.35;;
29294;SDS011;16305;48.566;8.846;2022-07-25T11:27:10;4.80;;;4.40;;
29294;SDS011;16305;48.566;8.846;2022-07-25T11:29:38;4.53;;;4.15;;
29294;SDS011;16305;48.566;8.846;2022-07-25T11:32:05;5.30;;;4.80;;
29294;SDS011;16305;48.566;8.846;2022-07-25T11:34:35;4.90;;;4.40;;
29294;SDS011;16305;48.566;8.846;2022-07-25T11:37:06;4.93;;;4.40;;
29294;SDS011;16305;48.566;8.846;2022-07-25T11:39:34;4.90;;;4.50;;
29294;SDS011;16305;48.566;8.846;2022-07-25T11:42:05;4.22;;;3.92;;
29294;SDS011;16305;48.566;8.846;2022-07-25T11:44:37;4.95;;;4.45;;
29294;SDS011;16305;48.566;8.846;2022-07-25T11:47:08;6.60;;;4.97;;
29294;SDS011;16305;48.566;8.846;2022-07-25T11:49:46;4.20;;;3.90;;
29294;SDS011;16305;48.566;8.846;2022-07-25T11:52:19;4.85;;;4.45;;
29294;SDS011;16305;48.566;8.846;2022-07-25T11:54:50;4.38;;;4.07;;
29294;SDS011;16305;48.566;8.846;2022-07-25T11:57:49;4.97;;;4.57;;
29294;SDS011;16305;48.566;8.846;2022-07-25T12:00:14;5.55;;;4.68;;
29294;SDS011;16305;48.566;8.846;2022-07-25T12:02:42;4.85;;;4.43;;
29294;SDS011;16305;48.566;8.846;2022-07-25T12:05:10;4.82;;;4.35;;
29294;SDS011;16305;48.566;8.846;2022-07-25T12:07:38;4.68;;;4.28;;
29294;SDS011;16305;48.566;8.846;2022-07-25T12:10:08;4.63;;;4.18;;
29294;SDS011;16305;48.566;8.846;2022-07-25T12:12:47;4.55;;;4.07;;
29294;SDS011;16305;48.566;8.846;2022-07-25T12:15:24;5.95;;;4.70;;
29294;SDS011;16305;48.566;8.846;2022-07-25T12:17:52;6.85;;;4.25;;
29294;SDS011;16305;48.566;8.846;2022-07-25T12:20:19;5.47;;;4.50;;
29294;SDS011;16305;48.566;8.846;2022-07-25T12:22:47;5.30;;;4.90;;
29294;SDS011;16305;48.566;8.846;2022-07-25T12:25:15;4.97;;;4.57;;
29294;SDS011;16305;48.566;8.846;2022-07-25T12:27:41;4.72;;;4.30;;
29294;SDS011;16305;48.566;8.846;2022-07-25T12:30:07;5.13;;;4.63;;
29294;SDS011;16305;48.566;8.846;2022-07-25T12:32:34;4.45;;;4.05;;
29294;SDS011;16305;48.566;8.846;2022-07-25T12:35:00;4.97;;;4.57;;
29294;SDS011;16305;48.566;8.846;2022-07-25T12:37:26;5.00;;;4.50;;
29294;SDS011;16305;48.566;8.846;2022-07-25T12:39:52;5.53;;;5.03;;
29294;SDS011;16305;48.566;8.846;2022-07-25T12:42:18;5.78;;;5.00;;
29294;SDS011;16305;48.566;8.846;2022-07-25T12:44:44;6.80;;;5.30;;
29294;SDS011;16305;48.566;8.846;2022-07-25T12:47:09;6.95;;;5.60;;
29294;SDS011;16305;48.566;8.846;2022-07-25T12:49:35;6.20;;;5.30;;
29294;SDS011;16305;48.566;8.846;2022-07-25T12:52:01;6.30;;;5.78;;
29294;SDS011;16305;48.566;8.846;2022-07-25T12:54:27;6.60;;;5.82;;
29294;SDS011;16305;48.566;8.846;2022-07-25T12:56:53;6.18;;;5.60;;
29294;SDS011;16305;48.566;8.846;2022-07-25T12:59:19;5.82;;;5.32;;
29294;SDS011;16305;48.566;8.846;2022-07-25T13:01:45;6.50;;;5.90;;
29294;SDS011;16305;48.566;8.846;2022-07-25T13:04:10;6.15;;;5.65;;
29294;SDS011;16305;48.566;8.846;2022-07-25T13:06:36;5.85;;;5.35;;
29294;SDS011;16305;48.566;8.846;2022-07-25T13:09:02;6.30;;;5.70;;
29294;SDS011;16305;48.566;8.846;2022-07-25T13:11:28;5.95;;;5.45;;
29294;SDS011;16305;48.566;8.846;2022-07-25T13:13:54;6.82;;;5.32;;
29294;SDS011;16305;48.566;8.846;2022-07-25T13:16:19;6.13;;;5.53;;
29294;SDS011;16305;48.566;8.846;2022-07-25T13:18:45;6.60;;;5.85;;
29294;SDS011;16305;48.566;8.846;2022-07-25T13:21:11;6.32;;;5.65;;
29294;SDS011;16305;48.566;8.846;2022-07-25T13:23:36;6.20;;;5.60;;
29294;SDS011;16305;48.566;8.846;2022-07-25T13:26:02;6.53;;;5.72;;
29294;SDS011;16305;48.566;8.846;2022-07-25T13:28:27;7.15;;;5.53;;
29294;SDS011;16305;48.566;8.846;2022-07-25T13:30:54;6.53;;;5.93;;
29294;SDS011;16305;48.566;8.846;2022-07-25T13:33:20;5.85;;;5.28;;
29294;SDS011;16305;48.566;8.846;2022-07-25T13:35:46;6.88;;;6.28;;
29294;SDS011;16305;48.566;8.846;2022-07-25T13:38:12;6.50;;;6.00;;
29294;SDS011;16305;48.566;8.846;2022-07-25T13:40:38;6.57;;;5.97;;
29294;SDS011;16305;48.566;8.846;2022-07-25T13:43:07;6.53;;;5.82;;
29294;SDS011;16305;48.566;8.846;2022-07-25T13:45:34;6.32;;;5.72;;
29294;SDS011;16305;48.566;8.846;2022-07-25T13:48:00;6.97;;;6.38;;
29294;SDS011;16305;48.566;8.846;2022-07-25T13:50:26;7.30;;;6.60;;
29294;SDS011;16305;48.566;8.846;2022-07-25T13:52:51;8.50;;;6.03;;
29294;SDS011;16305;48.566;8.846;2022-07-25T13:55:17;7.80;;;6.50;;
29294;SDS011;16305;48.566;8.846;2022-07-25T13:57:44;7.00;;;6.40;;
29294;SDS011;16305;48.566;8.846;2022-07-25T14:00:10;7.97;;;7.22;;
29294;SDS011;16305;48.566;8.846;2022-07-25T14:02:36;7.50;;;6.40;;
29294;SDS011;16305;48.566;8.846;2022-07-25T14:05:02;7.15;;;6.45;;
29294;SDS011;16305;48.566;8.846;2022-07-25T14:07:28;8.35;;;6.93;;
29294;SDS011;16305;48.566;8.846;2022-07-25T14:09:53;6.35;;;5.80;;
29294;SDS011;16305;48.566;8.846;2022-07-25T14:12:19;7.13;;;6.43;;
29294;SDS011;16305;48.566;8.846;2022-07-25T14:14:44;6.50;;;5.90;;
29294;SDS011;16305;48.566;8.846;2022-07-25T14:17:10;9.32;;;6.60;;
29294;SDS011;16305;48.566;8.846;2022-07-25T14:19:36;7.43;;;6.78;;
29294;SDS011;16305;48.566;8.846;2022-07-25T14:22:01;7.90;;;6.60;;
29294;SDS011;16305;48.566;8.846;2022-07-25T14:24:27;7.15;;;6.43;;
29294;SDS011;16305;48.566;8.846;2022-07-25T14:26:53;7.10;;;6.40;;
29294;SDS011;16305;48.566;8.846;2022-07-25T14:29:19;7.40;;;6.18;;
29294;SDS011;16305;48.566;8.846;2022-07-25T14:31:45;7.45;;;5.97;;
29294;SDS011;16305;48.566;8.846;2022-07-25T14:34:11;9.02;;;7.03;;
29294;SDS011;16305;48.566;8.846;2022-07-25T14:36:39;6.43;;;5.88;;
29294;SDS011;16305;48.566;8.846;2022-07-25T14:39:05;8.60;;;6.43;;
29294;SDS011;16305;48.566;8.846;2022-07-25T14:41:30;8.27;;;6.38;;
29294;SDS011;16305;48.566;8.846;2022-07-25T14:43:56;6.20;;;5.70;;
29294;SDS011;16305;48.566;8.846;2022-07-25T14:46:21;6.55;;;5.95;;
29294;SDS011;16305;48.566;8.846;2022-07-25T14:48:47;7.28;;;6.47;;
29294;SDS011;16305;48.566;8.846;2022-07-25T14:51:12;6.38;;;5.78;;
29294;SDS011;16305;48.566;8.846;2022-07-25T14:53:38;6.63;;;6.03;;